sensor_id;sensor_type;location;lat;lon;timestamp;pressure;altitude;pressure_sealevel;temperature;humidity
27425;BME280;15244;49.088;11.886;2023-01-30T00:04:28;96211.03;;;1.21;51.92
27425;BME280;15244;49.088;11.886;2023-01-30T00:09:29;96202.66;;;1.22;51.43
27425;BME280;15244;49.088;11.886;2023-01-30T00:14:31;96190.03;;;1.23;51.86
27425;BME280;15244;49.088;11.886;2023-01-30T00:19:32;96183.22;;;1.25;51.94
27425;BME280;15244;49.088;11.886;2023-01-30T00:24:34;96186.22;;;1.24;52.05
27425;BME280;15244;49.088;11.886;2023-01-30T00:29:35;96182.75;;;1.23;51.58
27425;BME280;15244;49.088;11.886;2023-01-30T00:34:37;96168.53;;;1.23;51.54
27425;BME280;15244;49.088;11.886;2023-01-30T00:39:38;96153.53;;;1.22;51.82
27425;BME280;15244;49.088;11.886;2023-01-30T00:44:40;96156.03;;;1.18;51.51
27425;BME280;15244;49.088;11.886;2023-01-30T00:50:00;96144.50;;;1.18;52.03
27425;BME280;15244;49.088;11.886;2023-01-30T00:55:02;96132.66;;;1.19;51.83
27425;BME280;15244;49.088;11.886;2023-01-30T01:00:04;96125.22;;;1.16;51.59
27425;BME280;15244;49.088;11.886;2023-01-30T01:05:06;96113.84;;;1.10;51.90
27425;BME280;15244;49.088;11.886;2023-01-30T01:10:08;96102.31;;;1.10;52.16
27425;BME280;15244;49.088;11.886;2023-01-30T01:15:17;96102.31;;;1.10;52.29
27425;BME280;15244;49.088;11.886;2023-01-30T01:20:21;96109.75;;;1.04;52.21
27425;BME280;15244;49.088;11.886;2023-01-30T01:25:24;96101.84;;;1.07;51.71
27425;BME280;15244;49.088;11.886;2023-01-30T01:30:25;96124.44;;;1.06;52.23
27425;BME280;15244;49.088;11.886;2023-01-30T01:35:27;96124.44;;;1.06;52.07
27425;BME280;15244;49.088;11.886;2023-01-30T01:40:28;96155.38;;;1.04;52.05
27425;BME280;15244;49.088;11.886;2023-01-30T01:45:52;96162.81;;;1.07;52.22
27425;BME280;15244;49.088;11.886;2023-01-30T01:51:11;96171.81;;;1.11;52.42
27425;BME280;15244;49.088;11.886;2023-01-30T01:56:17;96158.38;;;1.11;52.13
27425;BME280;15244;49.088;11.886;2023-01-30T02:01:20;96155.25;;;1.09;nan
27425;BME280;15244;49.088;11.886;2023-01-30T02:06:23;96136.75;;;1.07;51.94
27425;BME280;15244;49.088;11.886;2023-01-30T02:11:46;96142.75;;;1.04;52.33
27425;BME280;15244;49.088;11.886;2023-01-30T02:16:50;96128.19;;;0.97;52.40
27425;BME280;15244;49.088;11.886;2023-01-30T02:22:15;96129.94;;;1.01;52.36
27425;BME280;15244;49.088;11.886;2023-01-30T02:38:40;96092.50;;;1.14;52.62
27425;BME280;15244;49.088;11.886;2023-01-30T02:44:29;96084.47;;;1.14;52.14
27425;BME280;15244;49.088;11.886;2023-01-30T02:49:31;96093.78;;;1.16;52.51
27425;BME280;15244;49.088;11.886;2023-01-30T02:54:35;96078.47;;;1.17;52.43
27425;BME280;15244;49.088;11.886;2023-01-30T02:59:40;96083.22;;;1.20;52.05
27425;BME280;15244;49.088;11.886;2023-01-30T03:05:11;96059.84;;;1.20;52.36
27425;BME280;15244;49.088;11.886;2023-01-30T03:10:33;96034.53;;;1.21;nan
27425;BME280;15244;49.088;11.886;2023-01-30T03:15:47;96034.88;;;1.20;52.34
27425;BME280;15244;49.088;11.886;2023-01-30T03:20:50;95963.47;;;1.10;52.21
27425;BME280;15244;49.088;11.886;2023-01-30T03:25:52;95966.16;;;1.10;52.45
27425;BME280;15244;49.088;11.886;2023-01-30T03:30:54;96024.75;;;1.08;52.43
27425;BME280;15244;49.088;11.886;2023-01-30T03:35:55;96023.47;;;1.05;52.09
27425;BME280;15244;49.088;11.886;2023-01-30T03:40:57;96036.28;;;1.08;51.98
27425;BME280;15244;49.088;11.886;2023-01-30T03:45:59;96044.19;;;1.05;52.39
27425;BME280;15244;49.088;11.886;2023-01-30T03:51:02;96014.63;;;1.05;52.43
27425;BME280;15244;49.088;11.886;2023-01-30T03:56:04;95987.66;;;1.01;52.19
27425;BME280;15244;49.088;11.886;2023-01-30T04:01:08;95974.22;;;1.01;52.81
27425;BME280;15244;49.088;11.886;2023-01-30T04:06:10;95943.56;;;0.94;52.77
27425;BME280;15244;49.088;11.886;2023-01-30T04:11:12;95928.88;;;1.00;52.44
27425;BME280;15244;49.088;11.886;2023-01-30T04:16:22;95923.38;;;0.96;53.01
27425;BME280;15244;49.088;11.886;2023-01-30T04:21:42;95934.72;;;1.02;53.24
27425;BME280;15244;49.088;11.886;2023-01-30T04:26:45;95935.66;;;1.06;52.98
27425;BME280;15244;49.088;11.886;2023-01-30T04:31:47;95936.13;;;1.08;52.62
27425;BME280;15244;49.088;11.886;2023-01-30T04:37:01;95918.59;;;1.11;52.71
27425;BME280;15244;49.088;11.886;2023-01-30T04:42:04;95923.19;;;1.10;52.95
27425;BME280;15244;49.088;11.886;2023-01-30T04:47:13;95921.16;;;1.07;52.51
27425;BME280;15244;49.088;11.886;2023-01-30T04:52:15;95924.00;;;1.02;52.48
27425;BME280;15244;49.088;11.886;2023-01-30T04:57:16;95925.88;;;1.01;52.81
27425;BME280;15244;49.088;11.886;2023-01-30T05:02:18;95917.50;;;1.03;52.40
27425;BME280;15244;49.088;11.886;2023-01-30T05:07:23;95922.41;;;1.10;52.24
27425;BME280;15244;49.088;11.886;2023-01-30T05:12:24;95927.44;;;1.11;52.85
27425;BME280;15244;49.088;11.886;2023-01-30T05:17:26;95923.03;;;1.15;52.15
27425;BME280;15244;49.088;11.886;2023-01-30T05:22:28;95928.38;;;1.24;52.81
27425;BME280;15244;49.088;11.886;2023-01-30T05:27:29;95933.13;;;1.27;52.47
27425;BME280;15244;49.088;11.886;2023-01-30T05:32:31;95939.13;;;1.33;52.75
27425;BME280;15244;49.088;11.886;2023-01-30T05:37:32;95944.16;;;1.34;52.56
27425;BME280;15244;49.088;11.886;2023-01-30T05:42:34;95936.44;;;1.33;52.41
27425;BME280;15244;49.088;11.886;2023-01-30T05:47:35;95920.97;;;1.29;52.66
27425;BME280;15244;49.088;11.886;2023-01-30T05:52:37;95909.56;;;1.33;52.94
27425;BME280;15244;49.088;11.886;2023-01-30T05:57:39;95906.09;;;1.32;52.90
27425;BME280;15244;49.088;11.886;2023-01-30T06:02:40;95900.56;;;1.28;52.77
27425;BME280;15244;49.088;11.886;2023-01-30T06:07:42;95891.06;;;1.31;53.25
27425;BME280;15244;49.088;11.886;2023-01-30T06:12:43;95890.59;;;1.29;53.22
27425;BME280;15244;49.088;11.886;2023-01-30T06:17:45;95870.72;;;1.21;53.38
27425;BME280;15244;49.088;11.886;2023-01-30T06:22:47;95879.25;;;1.23;53.51
27425;BME280;15244;49.088;11.886;2023-01-30T06:27:49;95877.50;;;1.19;53.27
27425;BME280;15244;49.088;11.886;2023-01-30T06:32:51;95872.63;;;1.21;53.25
27425;BME280;15244;49.088;11.886;2023-01-30T06:37:52;95868.66;;;1.18;53.52
27425;BME280;15244;49.088;11.886;2023-01-30T06:42:54;95873.09;;;1.23;53.77
27425;BME280;15244;49.088;11.886;2023-01-30T06:47:56;95862.19;;;1.28;53.29
27425;BME280;15244;49.088;11.886;2023-01-30T06:52:57;95855.84;;;1.33;53.54
27425;BME280;15244;49.088;11.886;2023-01-30T06:58:05;95867.50;;;1.37;53.60
27425;BME280;15244;49.088;11.886;2023-01-30T07:03:15;95853.16;;;1.33;53.35
27425;BME280;15244;49.088;11.886;2023-01-30T07:08:16;95867.19;;;1.38;53.11
27425;BME280;15244;49.088;11.886;2023-01-30T07:13:18;95876.53;;;1.41;53.11
27425;BME280;15244;49.088;11.886;2023-01-30T07:18:20;95874.44;;;1.46;53.29
27425;BME280;15244;49.088;11.886;2023-01-30T07:23:21;95857.53;;;1.55;53.13
27425;BME280;15244;49.088;11.886;2023-01-30T07:28:23;95851.81;;;1.56;53.09
27425;BME280;15244;49.088;11.886;2023-01-30T07:33:24;95850.09;;;1.51;53.58
27425;BME280;15244;49.088;11.886;2023-01-30T07:38:26;95849.16;;;1.47;53.84
27425;BME280;15244;49.088;11.886;2023-01-30T07:43:28;95837.78;;;1.50;54.39
27425;BME280;15244;49.088;11.886;2023-01-30T07:48:29;95850.09;;;1.51;54.22
27425;BME280;15244;49.088;11.886;2023-01-30T07:53:31;95832.41;;;1.50;54.64
27425;BME280;15244;49.088;11.886;2023-01-30T07:58:32;95845.00;;;1.59;54.12
27425;BME280;15244;49.088;11.886;2023-01-30T08:03:34;95834.84;;;1.64;54.42
27425;BME280;15244;49.088;11.886;2023-01-30T08:08:35;95831.81;;;1.74;54.54
27425;BME280;15244;49.088;11.886;2023-01-30T08:13:37;95858.31;;;1.85;54.44
27425;BME280;15244;49.088;11.886;2023-01-30T08:18:39;95846.78;;;1.84;54.17
27425;BME280;15244;49.088;11.886;2023-01-30T08:23:40;95833.06;;;1.77;54.77
27425;BME280;15244;49.088;11.886;2023-01-30T08:28:42;95825.44;;;1.88;54.20
27425;BME280;15244;49.088;11.886;2023-01-30T08:33:43;95822.88;;;1.91;54.41
27425;BME280;15244;49.088;11.886;2023-01-30T08:38:45;95817.78;;;1.99;54.72
27425;BME280;15244;49.088;11.886;2023-01-30T08:43:47;95798.75;;;2.04;54.73
27425;BME280;15244;49.088;11.886;2023-01-30T08:48:49;95812.31;;;2.07;54.79
27425;BME280;15244;49.088;11.886;2023-01-30T08:53:51;95797.13;;;2.11;54.42
27425;BME280;15244;49.088;11.886;2023-01-30T08:58:52;95819.69;;;2.19;54.52
27425;BME280;15244;49.088;11.886;2023-01-30T09:03:54;95806.53;;;2.26;54.36
27425;BME280;15244;49.088;11.886;2023-01-30T09:08:58;95787.03;;;2.29;54.42
27425;BME280;15244;49.088;11.886;2023-01-30T09:14:00;95774.63;;;2.37;54.37
27425;BME280;15244;49.088;11.886;2023-01-30T09:19:01;95766.34;;;2.42;54.43
27425;BME280;15244;49.088;11.886;2023-01-30T09:24:04;95790.84;;;2.49;54.74
27425;BME280;15244;49.088;11.886;2023-01-30T09:29:06;95759.13;;;2.55;54.85
27425;BME280;15244;49.088;11.886;2023-01-30T09:34:07;95774.06;;;2.65;54.73
27425;BME280;15244;49.088;11.886;2023-01-30T09:39:09;95801.97;;;2.60;54.76
27425;BME280;15244;49.088;11.886;2023-01-30T09:50:35;95762.31;;;2.69;54.34
27425;BME280;15244;49.088;11.886;2023-01-30T09:55:43;95747.41;;;2.72;54.56
27425;BME280;15244;49.088;11.886;2023-01-30T10:00:48;95758.63;;;2.74;54.41
27425;BME280;15244;49.088;11.886;2023-01-30T10:05:55;95744.72;;;2.72;54.75
27425;BME280;15244;49.088;11.886;2023-01-30T10:12:09;95729.34;;;2.72;55.09
27425;BME280;15244;49.088;11.886;2023-01-30T10:27:30;95711.63;;;2.83;55.60
27425;BME280;15244;49.088;11.886;2023-01-30T10:32:52;95697.84;;;2.85;55.29
27425;BME280;15244;49.088;11.886;2023-01-30T10:38:23;95704.16;;;2.89;55.60
27425;BME280;15244;49.088;11.886;2023-01-30T10:43:38;95686.19;;;2.93;55.65
27425;BME280;15244;49.088;11.886;2023-01-30T10:48:57;95685.53;;;2.96;55.56
27425;BME280;15244;49.088;11.886;2023-01-30T10:54:01;95681.03;;;3.00;55.36
27425;BME280;15244;49.088;11.886;2023-01-30T10:59:23;95661.19;;;3.05;56.27
27425;BME280;15244;49.088;11.886;2023-01-30T11:04:35;95662.09;;;3.09;55.83
27425;BME280;15244;49.088;11.886;2023-01-30T11:09:41;95671.41;;;3.12;56.14
27425;BME280;15244;49.088;11.886;2023-01-30T11:25:19;95654.56;;;3.15;56.55
27425;BME280;15244;49.088;11.886;2023-01-30T11:30:27;95664.19;;;3.16;56.57
27425;BME280;15244;49.088;11.886;2023-01-30T11:35:29;95653.41;;;3.16;56.49
27425;BME280;15244;49.088;11.886;2023-01-30T11:40:37;95648.94;;;3.20;56.74
27425;BME280;15244;49.088;11.886;2023-01-30T11:45:43;95655.66;;;3.26;56.85
27425;BME280;15244;49.088;11.886;2023-01-30T11:50:48;95652.66;;;3.28;56.73
27425;BME280;15244;49.088;11.886;2023-01-30T11:56:14;95648.25;;;3.35;56.46
27425;BME280;15244;49.088;11.886;2023-01-30T12:01:26;95646.34;;;3.36;56.78
27425;BME280;15244;49.088;11.886;2023-01-30T12:06:39;95648.59;;;3.34;56.85
27425;BME280;15244;49.088;11.886;2023-01-30T12:11:45;95633.31;;;3.38;56.82
27425;BME280;15244;49.088;11.886;2023-01-30T12:22:20;95639.72;;;3.45;56.45
27425;BME280;15244;49.088;11.886;2023-01-30T12:33:21;95619.06;;;3.50;56.56
27425;BME280;15244;49.088;11.886;2023-01-30T12:44:13;95631.94;;;3.56;56.95
27425;BME280;15244;49.088;11.886;2023-01-30T12:55:18;95627.09;;;3.62;57.33
27425;BME280;15244;49.088;11.886;2023-01-30T13:06:14;95651.72;;;3.60;57.53
27425;BME280;15244;49.088;11.886;2023-01-30T13:11:38;95665.97;;;3.61;57.99
27425;BME280;15244;49.088;11.886;2023-01-30T13:16:58;95669.13;;;3.63;57.43
27425;BME280;15244;49.088;11.886;2023-01-30T13:27:32;95674.84;;;3.49;57.99
27425;BME280;15244;49.088;11.886;2023-01-30T13:32:59;95673.19;;;3.44;58.14
27425;BME280;15244;49.088;11.886;2023-01-30T13:38:03;95656.34;;;3.47;58.21
27425;BME280;15244;49.088;11.886;2023-01-30T13:43:17;95659.78;;;3.60;57.89
27425;BME280;15244;49.088;11.886;2023-01-30T13:54:12;95648.31;;;3.76;57.65
27425;BME280;15244;49.088;11.886;2023-01-30T13:59:44;95657.25;;;3.80;57.77
27425;BME280;15244;49.088;11.886;2023-01-30T14:05:01;95667.47;;;3.86;57.92
27425;BME280;15244;49.088;11.886;2023-01-30T14:20:32;95667.00;;;3.97;57.76
27425;BME280;15244;49.088;11.886;2023-01-30T14:25:45;95662.59;;;4.04;57.44
27425;BME280;15244;49.088;11.886;2023-01-30T14:30:50;95658.34;;;4.03;57.12
27425;BME280;15244;49.088;11.886;2023-01-30T14:41:36;95655.97;;;4.02;57.22
27425;BME280;15244;49.088;11.886;2023-01-30T14:46:41;95676.53;;;4.06;57.17
27425;BME280;15244;49.088;11.886;2023-01-30T14:51:58;95682.38;;;4.08;57.38
27425;BME280;15244;49.088;11.886;2023-01-30T14:57:24;95722.47;;;4.10;57.37
27425;BME280;15244;49.088;11.886;2023-01-30T15:02:46;95702.81;;;4.09;57.46
27425;BME280;15244;49.088;11.886;2023-01-30T15:08:01;95734.09;;;4.10;57.26
27425;BME280;15244;49.088;11.886;2023-01-30T15:23:54;95759.38;;;4.18;56.69
27425;BME280;15244;49.088;11.886;2023-01-30T15:34:53;95741.00;;;4.24;56.72
27425;BME280;15244;49.088;11.886;2023-01-30T15:50:50;95784.88;;;4.21;56.42
27425;BME280;15244;49.088;11.886;2023-01-30T15:55:58;95789.44;;;4.32;56.53
27425;BME280;15244;49.088;11.886;2023-01-30T16:01:01;95795.66;;;4.33;56.86
27425;BME280;15244;49.088;11.886;2023-01-30T16:06:04;95818.13;;;4.37;56.49
27425;BME280;15244;49.088;11.886;2023-01-30T16:11:11;95816.09;;;4.34;56.19
27425;BME280;15244;49.088;11.886;2023-01-30T16:16:15;95814.19;;;4.34;56.41
27425;BME280;15244;49.088;11.886;2023-01-30T16:21:31;95842.66;;;4.32;56.46
27425;BME280;15244;49.088;11.886;2023-01-30T16:26:42;95837.78;;;4.38;56.38
27425;BME280;15244;49.088;11.886;2023-01-30T16:31:46;95823.97;;;4.39;56.27
27425;BME280;15244;49.088;11.886;2023-01-30T16:36:53;95831.16;;;4.35;56.54
27425;BME280;15244;49.088;11.886;2023-01-30T16:42:01;95831.41;;;4.30;56.58
27425;BME280;15244;49.088;11.886;2023-01-30T16:47:28;95867.28;;;4.30;56.64
27425;BME280;15244;49.088;11.886;2023-01-30T16:52:37;95865.16;;;4.36;56.69
27425;BME280;15244;49.088;11.886;2023-01-30T16:57:53;95860.06;;;4.34;56.62
27425;BME280;15244;49.088;11.886;2023-01-30T17:03:00;95867.84;;;4.36;56.20
27425;BME280;15244;49.088;11.886;2023-01-30T17:19:17;95884.81;;;4.37;56.48
27425;BME280;15244;49.088;11.886;2023-01-30T17:24:20;95876.41;;;4.38;56.11
27425;BME280;15244;49.088;11.886;2023-01-30T17:29:29;95882.91;;;4.37;56.58
27425;BME280;15244;49.088;11.886;2023-01-30T17:34:46;95888.75;;;4.39;56.28
27425;BME280;15244;49.088;11.886;2023-01-30T17:39:50;95908.44;;;4.40;56.68
27425;BME280;15244;49.088;11.886;2023-01-30T17:44:54;95906.97;;;4.42;56.17
27425;BME280;15244;49.088;11.886;2023-01-30T17:49:55;95916.06;;;4.38;56.12
27425;BME280;15244;49.088;11.886;2023-01-30T17:55:02;95919.69;;;4.42;56.26
27425;BME280;15244;49.088;11.886;2023-01-30T18:00:16;95928.25;;;4.44;56.58
27425;BME280;15244;49.088;11.886;2023-01-30T18:05:20;95952.41;;;4.40;56.36
27425;BME280;15244;49.088;11.886;2023-01-30T18:10:29;95964.44;;;4.43;56.13
27425;BME280;15244;49.088;11.886;2023-01-30T18:15:38;95957.38;;;4.38;56.14
27425;BME280;15244;49.088;11.886;2023-01-30T18:20:41;95944.44;;;4.44;56.11
27425;BME280;15244;49.088;11.886;2023-01-30T18:25:45;95946.78;;;4.45;56.36
27425;BME280;15244;49.088;11.886;2023-01-30T18:30:46;95966.25;;;4.51;55.91
27425;BME280;15244;49.088;11.886;2023-01-30T18:35:59;95999.31;;;4.48;55.82
27425;BME280;15244;49.088;11.886;2023-01-30T18:41:08;95976.69;;;4.40;56.21
27425;BME280;15244;49.088;11.886;2023-01-30T18:46:14;95974.91;;;4.44;56.10
27425;BME280;15244;49.088;11.886;2023-01-30T18:51:32;95993.13;;;4.47;56.19
27425;BME280;15244;49.088;11.886;2023-01-30T18:56:36;95986.63;;;4.48;55.53
27425;BME280;15244;49.088;11.886;2023-01-30T19:01:41;96005.31;;;4.53;56.25
27425;BME280;15244;49.088;11.886;2023-01-30T19:06:43;96007.41;;;4.48;55.87
27425;BME280;15244;49.088;11.886;2023-01-30T19:11:48;96006.97;;;4.58;56.07
27425;BME280;15244;49.088;11.886;2023-01-30T19:17:12;96005.31;;;4.53;55.63
27425;BME280;15244;49.088;11.886;2023-01-30T19:22:16;96033.53;;;4.56;55.20
27425;BME280;15244;49.088;11.886;2023-01-30T19:27:19;96022.94;;;4.63;55.50
27425;BME280;15244;49.088;11.886;2023-01-30T19:32:23;96015.53;;;4.60;55.63
27425;BME280;15244;49.088;11.886;2023-01-30T19:37:29;96031.41;;;4.62;55.70
27425;BME280;15244;49.088;11.886;2023-01-30T19:42:30;96037.25;;;4.64;55.47
27425;BME280;15244;49.088;11.886;2023-01-30T19:47:32;96049.53;;;4.61;55.69
27425;BME280;15244;49.088;11.886;2023-01-30T19:52:37;96051.19;;;4.66;55.71
27425;BME280;15244;49.088;11.886;2023-01-30T19:57:43;96059.66;;;4.64;55.58
27425;BME280;15244;49.088;11.886;2023-01-30T20:02:49;96058.88;;;4.64;55.43
27425;BME280;15244;49.088;11.886;2023-01-30T20:07:52;96054.34;;;4.68;55.04
27425;BME280;15244;49.088;11.886;2023-01-30T20:13:04;96072.16;;;4.69;55.38
27425;BME280;15244;49.088;11.886;2023-01-30T20:18:07;96059.31;;;4.78;55.39
27425;BME280;15244;49.088;11.886;2023-01-30T20:23:09;96110.06;;;4.72;55.86
27425;BME280;15244;49.088;11.886;2023-01-30T20:28:15;96093.31;;;4.79;55.30
27425;BME280;15244;49.088;11.886;2023-01-30T20:33:19;96091.59;;;4.74;54.96
27425;BME280;15244;49.088;11.886;2023-01-30T20:38:21;96098.13;;;4.73;55.31
27425;BME280;15244;49.088;11.886;2023-01-30T20:43:30;96104.34;;;4.74;55.28
27425;BME280;15244;49.088;11.886;2023-01-30T20:48:34;96100.16;;;4.76;55.17
27425;BME280;15244;49.088;11.886;2023-01-30T20:53:45;96097.00;;;4.74;55.18
27425;BME280;15244;49.088;11.886;2023-01-30T20:58:48;96093.31;;;4.79;55.13
27425;BME280;15244;49.088;11.886;2023-01-30T21:03:56;96102.28;;;4.71;55.21
27425;BME280;15244;49.088;11.886;2023-01-30T21:09:01;96104.97;;;4.71;55.16
27425;BME280;15244;49.088;11.886;2023-01-30T21:14:09;96114.22;;;4.70;55.06
27425;BME280;15244;49.088;11.886;2023-01-30T21:19:19;96134.81;;;4.62;55.52
27425;BME280;15244;49.088;11.886;2023-01-30T21:24:26;96126.47;;;4.55;55.77
27425;BME280;15244;49.088;11.886;2023-01-30T21:29:33;96118.50;;;4.59;55.71
27425;BME280;15244;49.088;11.886;2023-01-30T21:34:35;96126.13;;;4.56;55.87
27425;BME280;15244;49.088;11.886;2023-01-30T21:39:43;96135.69;;;4.54;55.46
27425;BME280;15244;49.088;11.886;2023-01-30T21:45:28;96133.66;;;4.51;56.04
27425;BME280;15244;49.088;11.886;2023-01-30T21:50:34;96132.53;;;4.52;55.64
27425;BME280;15244;49.088;11.886;2023-01-30T21:55:36;96139.19;;;4.54;56.10
27425;BME280;15244;49.088;11.886;2023-01-30T22:00:40;96149.06;;;4.50;56.04
27425;BME280;15244;49.088;11.886;2023-01-30T22:05:45;96134.25;;;4.56;56.08
27425;BME280;15244;49.088;11.886;2023-01-30T22:10:49;96139.38;;;4.49;55.50
27425;BME280;15244;49.088;11.886;2023-01-30T22:16:11;96158.31;;;4.62;55.92
27425;BME280;15244;49.088;11.886;2023-01-30T22:21:20;96144.34;;;4.60;55.71
27425;BME280;15244;49.088;11.886;2023-01-30T22:26:29;96151.00;;;4.62;55.80
27425;BME280;15244;49.088;11.886;2023-01-30T22:31:34;96168.13;;;4.66;56.04
27425;BME280;15244;49.088;11.886;2023-01-30T22:36:38;96170.69;;;4.63;55.90
27425;BME280;15244;49.088;11.886;2023-01-30T22:41:42;96168.66;;;4.60;55.71
27425;BME280;15244;49.088;11.886;2023-01-30T22:46:52;96174.53;;;4.62;55.83
27425;BME280;15244;49.088;11.886;2023-01-30T22:51:58;96160.66;;;4.51;56.08
27425;BME280;15244;49.088;11.886;2023-01-30T22:57:02;96175.72;;;4.52;55.84
27425;BME280;15244;49.088;11.886;2023-01-30T23:02:06;96182.00;;;4.44;55.77
27425;BME280;15244;49.088;11.886;2023-01-30T23:07:13;96169.19;;;4.53;55.92
27425;BME280;15244;49.088;11.886;2023-01-30T23:12:20;96161.19;;;4.44;55.97
27425;BME280;15244;49.088;11.886;2023-01-30T23:17:45;96175.84;;;4.43;56.04
27425;BME280;15244;49.088;11.886;2023-01-30T23:23:08;96158.97;;;4.46;56.06
27425;BME280;15244;49.088;11.886;2023-01-30T23:28:19;96162.69;;;4.54;56.04
27425;BME280;15244;49.088;11.886;2023-01-30T23:33:27;96160.47;;;4.56;55.89
27425;BME280;15244;49.088;11.886;2023-01-30T23:38:31;96157.53;;;4.61;55.89
27425;BME280;15244;49.088;11.886;2023-01-30T23:43:36;96168.97;;;4.46;55.90
27425;BME280;15244;49.088;11.886;2023-01-30T23:48:42;96180.56;;;4.46;56.18
27425;BME280;15244;49.088;11.886;2023-01-30T23:53:47;96168.88;;;4.54;55.78
27425;BME280;15244;49.088;11.886;2023-01-30T23:58:49;96179.34;;;4.56;55.57
